createdAt,value
2018-09-27T00:01:46.976Z,1.53
2018-09-27T00:04:16.685Z,2.07
2018-09-27T00:06:46.366Z,1.90
2018-09-27T00:09:16.080Z,1.90
2018-09-27T00:11:45.707Z,1.97
2018-09-27T00:14:15.384Z,2.30
2018-09-27T00:16:45.137Z,2.30
2018-09-27T00:19:14.835Z,1.97
2018-09-27T00:21:44.516Z,1.90
2018-09-27T00:24:14.296Z,2.00
2018-09-27T00:26:43.928Z,2.40
2018-09-27T00:29:13.624Z,2.03
2018-09-27T00:31:43.296Z,2.40
2018-09-27T00:34:12.971Z,1.90
2018-09-27T00:36:42.775Z,2.67
2018-09-27T00:39:13.862Z,2.50
2018-09-27T00:41:43.631Z,2.17
2018-09-27T00:44:13.292Z,2.43
2018-09-27T00:46:42.973Z,2.10
2018-09-27T00:49:12.607Z,2.00
2018-09-27T00:51:42.270Z,2.50
2018-09-27T00:54:12.021Z,2.40
2018-09-27T00:56:41.725Z,1.90
2018-09-27T00:59:11.392Z,2.00
2018-09-27T01:01:41.200Z,2.17
2018-09-27T01:04:10.839Z,2.13
2018-09-27T01:06:40.488Z,1.90
2018-09-27T01:09:11.301Z,2.40
2018-09-27T01:11:40.954Z,2.13
2018-09-27T01:14:10.629Z,2.50
2018-09-27T01:16:40.316Z,3.20
2018-09-27T01:19:09.943Z,1.63
2018-09-27T01:21:39.657Z,2.40
2018-09-27T01:24:09.373Z,3.07
2018-09-27T01:26:39.013Z,3.00
2018-09-27T01:29:08.707Z,2.73
2018-09-27T01:31:38.384Z,2.50
2018-09-27T01:34:08.150Z,2.83
2018-09-27T01:36:37.880Z,2.23
2018-09-27T01:39:08.929Z,2.53
2018-09-27T01:41:38.560Z,3.10
2018-09-27T01:44:08.321Z,2.77
2018-09-27T01:46:37.733Z,1.93
2018-09-27T01:49:07.329Z,2.57
2018-09-27T01:51:36.745Z,2.90
2018-09-27T01:54:06.691Z,2.50
2018-09-27T01:56:36.120Z,2.70
2018-09-27T01:59:05.588Z,3.30
2018-09-27T02:01:35.027Z,2.50
2018-09-27T02:04:04.432Z,3.00
2018-09-27T02:06:33.861Z,3.00
2018-09-27T02:09:03.471Z,2.97
2018-09-27T02:11:32.896Z,3.40
2018-09-27T02:14:02.304Z,2.30
2018-09-27T02:16:31.739Z,2.87
2018-09-27T02:19:01.258Z,2.90
2018-09-27T02:21:30.633Z,3.03
2018-09-27T02:24:00.039Z,3.40
2018-09-27T02:26:29.437Z,3.37
2018-09-27T02:28:58.824Z,3.90
2018-09-27T02:31:28.414Z,3.20
2018-09-27T02:33:57.819Z,3.23
2018-09-27T02:36:27.260Z,3.60
2018-09-27T02:38:56.678Z,3.77
2018-09-27T02:41:26.103Z,3.40
2018-09-27T02:43:55.515Z,3.40
2018-09-27T02:46:25.176Z,4.00
2018-09-27T02:48:54.575Z,4.23
2018-09-27T02:51:23.991Z,3.70
2018-09-27T02:53:53.484Z,3.57
2018-09-27T02:56:22.863Z,3.80
2018-09-27T02:58:52.494Z,4.27
2018-09-27T03:01:21.943Z,4.10
2018-09-27T03:03:51.355Z,3.90
2018-09-27T03:06:20.883Z,4.10
2018-09-27T03:08:50.294Z,4.80
2018-09-27T03:11:19.687Z,3.90
2018-09-27T03:13:49.162Z,4.23
2018-09-27T03:16:18.735Z,4.37
2018-09-27T03:18:48.107Z,3.80
2018-09-27T03:21:17.519Z,4.50
2018-09-27T03:23:47.016Z,3.70
2018-09-27T03:26:16.412Z,3.90
2018-09-27T03:28:45.802Z,3.93
2018-09-27T03:31:15.222Z,3.97
2018-09-27T03:33:44.688Z,5.00
2018-09-27T03:36:14.099Z,4.50
2018-09-27T03:38:43.503Z,4.37
2018-09-27T03:41:12.900Z,3.70
2018-09-27T03:43:42.451Z,3.57
2018-09-27T03:46:11.973Z,4.30
2018-09-27T03:48:41.412Z,4.07
2018-09-27T03:51:10.818Z,3.90
2018-09-27T03:53:40.481Z,4.10
2018-09-27T03:56:09.947Z,3.77
2018-09-27T03:58:39.445Z,4.23
2018-09-27T04:01:09.204Z,4.10
2018-09-27T04:03:38.602Z,3.80
2018-09-27T04:06:08.039Z,3.87
2018-09-27T04:08:37.463Z,4.63
2018-09-27T04:11:07.089Z,4.37
2018-09-27T04:13:36.482Z,3.70
2018-09-27T04:16:05.888Z,3.83
2018-09-27T04:18:35.284Z,3.70
2018-09-27T04:21:04.671Z,3.80
2018-09-27T04:23:34.100Z,3.63
2018-09-27T04:26:03.518Z,4.60
2018-09-27T04:28:32.940Z,3.80
2018-09-27T04:31:02.426Z,4.53
2018-09-27T04:33:31.795Z,4.47
2018-09-27T04:36:01.253Z,3.73
2018-09-27T04:38:30.680Z,4.00
2018-09-27T04:41:00.156Z,4.10
2018-09-27T04:43:29.564Z,5.10
2018-09-27T04:45:58.988Z,3.80
2018-09-27T04:48:28.389Z,4.30
2018-09-27T04:50:57.819Z,4.80
2018-09-27T04:53:27.508Z,4.80
2018-09-27T04:55:56.942Z,5.53
2018-09-27T04:58:26.331Z,4.03
2018-09-27T05:00:55.787Z,4.30
2018-09-27T05:03:25.179Z,4.30
2018-09-27T05:05:54.614Z,4.13
2018-09-27T05:08:24.214Z,3.70
2018-09-27T05:10:53.621Z,4.60
2018-09-27T05:13:23.033Z,3.60
2018-09-27T05:15:52.475Z,3.87
2018-09-27T05:18:21.876Z,4.27
2018-09-27T05:20:51.284Z,4.90
2018-09-27T05:23:20.935Z,4.10
2018-09-27T05:25:50.342Z,4.70
2018-09-27T05:28:19.755Z,3.73
2018-09-27T05:30:49.461Z,3.67
2018-09-27T05:33:18.934Z,4.20
2018-09-27T05:35:48.416Z,4.07
2018-09-27T05:38:17.835Z,4.00
2018-09-27T05:40:47.242Z,4.77
2018-09-27T05:43:16.677Z,3.97
2018-09-27T05:45:46.250Z,3.50
2018-09-27T05:48:15.677Z,3.90
2018-09-27T05:50:45.062Z,4.10
2018-09-27T05:53:14.564Z,4.00
2018-09-27T05:55:44.025Z,4.47
2018-09-27T05:58:13.605Z,4.00
2018-09-27T06:00:43.304Z,3.93
2018-09-27T06:03:12.725Z,4.40
2018-09-27T06:05:42.555Z,3.90
2018-09-27T06:08:12.008Z,4.93
2018-09-27T06:10:41.445Z,4.33
2018-09-27T06:13:10.861Z,4.40
2018-09-27T06:15:40.387Z,3.80
2018-09-27T06:18:09.751Z,3.83
2018-09-27T06:20:39.396Z,4.47
2018-09-27T06:23:08.831Z,4.00
2018-09-27T06:25:38.246Z,4.20
2018-09-27T06:28:07.663Z,5.40
2018-09-27T06:30:37.155Z,3.83
2018-09-27T06:33:06.731Z,3.90
2018-09-27T06:35:36.182Z,5.50
2018-09-27T06:38:05.601Z,3.83
2018-09-27T06:40:35.037Z,3.30
2018-09-27T06:43:04.441Z,4.57
2018-09-27T06:45:34.204Z,3.43
2018-09-27T06:48:03.616Z,4.10
2018-09-27T06:50:33.019Z,3.10
2018-09-27T06:53:02.479Z,4.03
2018-09-27T06:55:32.131Z,4.70
2018-09-27T06:58:01.366Z,3.80
2018-09-27T07:00:30.773Z,3.87
2018-09-27T07:03:00.178Z,4.20
2018-09-27T07:05:30.231Z,4.83
2018-09-27T07:07:59.700Z,3.77
2018-09-27T07:10:29.115Z,3.90
2018-09-27T07:12:59.294Z,3.90
2018-09-27T07:15:28.863Z,4.27
2018-09-27T07:17:58.234Z,4.07
2018-09-27T07:20:27.778Z,4.37
2018-09-27T07:22:57.147Z,3.80
2018-09-27T07:25:26.587Z,3.93
2018-09-27T07:27:56.120Z,3.50
2018-09-27T07:30:25.665Z,4.00
2018-09-27T07:32:55.209Z,4.60
2018-09-27T07:35:24.612Z,3.43
2018-09-27T07:37:54.095Z,4.55
2018-09-27T07:40:23.545Z,4.10
2018-09-27T07:42:53.040Z,4.27
2018-09-27T07:45:22.413Z,4.10
2018-09-27T07:47:51.795Z,4.33
2018-09-27T07:50:21.259Z,4.50
2018-09-27T07:52:50.944Z,3.70
2018-09-27T07:55:20.348Z,4.23
2018-09-27T07:57:49.787Z,4.53
2018-09-27T08:00:19.257Z,4.30
2018-09-27T08:02:48.751Z,4.40
2018-09-27T08:05:18.081Z,3.90
2018-09-27T08:07:47.551Z,4.07
2018-09-27T08:10:17.012Z,4.07
2018-09-27T08:12:46.472Z,4.43
2018-09-27T08:15:15.919Z,3.73
2018-09-27T08:17:45.372Z,3.90
2018-09-27T08:20:14.837Z,3.23
2018-09-27T08:22:44.606Z,3.67
2018-09-27T08:25:14.030Z,2.97
2018-09-27T08:27:43.471Z,3.60
2018-09-27T08:30:12.891Z,3.47
2018-09-27T08:32:42.416Z,3.40
2018-09-27T08:35:11.787Z,3.50
2018-09-27T08:37:41.203Z,3.50
2018-09-27T08:40:10.711Z,3.17
2018-09-27T08:42:40.033Z,2.83
2018-09-27T08:45:09.653Z,3.47
2018-09-27T08:47:39.006Z,3.20
2018-09-27T08:50:08.397Z,3.10
2018-09-27T08:52:37.815Z,2.97
2018-09-27T08:55:07.308Z,2.70
2018-09-27T08:57:36.756Z,3.40
2018-09-27T09:00:07.150Z,3.00
2018-09-27T09:02:36.564Z,2.90
2018-09-27T09:05:06.075Z,3.75
2018-09-27T09:07:35.509Z,3.60
2018-09-27T09:10:05.309Z,3.10
2018-09-27T09:12:34.746Z,3.27
2018-09-27T09:15:04.256Z,3.57
2018-09-27T09:17:33.657Z,2.83
2018-09-27T09:20:03.240Z,2.73
2018-09-27T09:22:32.666Z,3.23
2018-09-27T09:25:02.036Z,2.60
2018-09-27T09:27:31.444Z,2.63
2018-09-27T09:30:00.934Z,2.53
2018-09-27T09:32:30.460Z,2.70
2018-09-27T09:34:59.859Z,2.57
2018-09-27T09:37:29.259Z,2.40
2018-09-27T09:39:58.692Z,3.20
2018-09-27T09:42:28.341Z,2.47
2018-09-27T09:44:57.735Z,2.63
2018-09-27T09:47:27.532Z,2.30
2018-09-27T09:49:56.935Z,1.63
2018-09-27T09:52:26.327Z,1.70
2018-09-27T09:54:55.705Z,2.00
2018-09-27T09:57:25.152Z,2.73
2018-09-27T09:59:54.554Z,1.90
2018-09-27T10:02:23.974Z,1.90
2018-09-27T10:04:53.359Z,2.50
2018-09-27T10:07:22.786Z,1.73
2018-09-27T10:09:52.296Z,1.63
2018-09-27T10:12:28.028Z,2.13
2018-09-27T10:14:57.457Z,1.73
2018-09-27T10:17:26.895Z,1.87
2018-09-27T10:19:56.283Z,1.80
2018-09-27T10:22:25.725Z,2.07
2018-09-27T10:24:55.170Z,1.37
2018-09-27T10:27:24.690Z,1.97
2018-09-27T10:29:54.101Z,1.70
2018-09-27T10:32:23.520Z,1.70
2018-09-27T10:34:53.004Z,1.97
2018-09-27T10:37:22.405Z,1.73
2018-09-27T10:39:51.813Z,1.77
2018-09-27T10:42:21.277Z,1.63
2018-09-27T10:44:50.745Z,2.30
2018-09-27T10:47:20.223Z,1.60
2018-09-27T10:49:49.609Z,2.10
2018-09-27T10:52:19.043Z,1.63
2018-09-27T10:54:48.443Z,1.50
2018-09-27T10:57:17.965Z,1.10
2018-09-27T10:59:47.374Z,1.43
2018-09-27T11:02:16.720Z,1.13
2018-09-27T11:04:46.461Z,2.23
2018-09-27T11:07:15.857Z,1.10
2018-09-27T11:09:45.467Z,1.60
2018-09-27T11:12:14.856Z,1.87
2018-09-27T11:14:44.635Z,1.60
2018-09-27T11:17:14.041Z,1.50
2018-09-27T11:19:44.487Z,1.43
2018-09-27T11:22:13.917Z,1.37
2018-09-27T11:24:43.344Z,1.77
2018-09-27T11:27:12.780Z,1.50
2018-09-27T11:29:47.319Z,1.47
2018-09-27T11:32:22.167Z,1.90
2018-09-27T11:34:51.545Z,1.67
2018-09-27T11:37:21.017Z,1.57
2018-09-27T11:39:50.451Z,1.40
2018-09-27T11:42:20.027Z,3.30
2018-09-27T11:44:49.366Z,4.63
2018-09-27T11:47:19.111Z,1.40
2018-09-27T11:49:48.643Z,1.73
2018-09-27T11:52:18.077Z,1.40
2018-09-27T11:54:47.482Z,2.10
2018-09-27T11:57:16.921Z,1.57
2018-09-27T11:59:46.537Z,1.77
2018-09-27T12:02:16.045Z,1.10
2018-09-27T12:04:45.446Z,1.73
2018-09-27T12:07:14.910Z,1.87
2018-09-27T12:09:44.314Z,1.30
2018-09-27T12:12:14.124Z,2.00
2018-09-27T12:14:43.675Z,1.97
2018-09-27T12:17:12.979Z,1.20
2018-09-27T12:19:42.427Z,1.27
2018-09-27T12:22:11.816Z,1.90
2018-09-27T12:24:41.271Z,1.50
2018-09-27T12:27:10.665Z,2.10
2018-09-27T12:29:40.136Z,1.17
2018-09-27T12:32:09.551Z,1.40
2018-09-27T12:34:38.932Z,2.40
2018-09-27T12:37:08.359Z,1.53
2018-09-27T12:39:37.891Z,1.80
2018-09-27T12:42:07.400Z,2.03
2018-09-27T12:44:36.652Z,2.00
2018-09-27T12:47:06.033Z,2.50
2018-09-27T12:49:35.460Z,2.40
2018-09-27T12:52:05.071Z,2.00
2018-09-27T12:54:34.410Z,2.70
2018-09-27T12:57:03.821Z,3.57
2018-09-27T12:59:33.323Z,1.83
2018-09-27T13:02:02.854Z,2.77
2018-09-27T13:04:32.252Z,10.10
2018-09-27T13:07:01.927Z,2.23
2018-09-27T13:09:31.452Z,1.77
2018-09-27T13:12:00.870Z,2.40
2018-09-27T13:14:30.303Z,2.07
2018-09-27T13:16:59.690Z,1.50
2018-09-27T13:19:29.159Z,2.40
2018-09-27T13:21:58.484Z,2.20
2018-09-27T13:24:27.938Z,1.90
2018-09-27T13:26:57.326Z,1.60
2018-09-27T13:29:26.694Z,1.87
2018-09-27T13:31:56.131Z,2.50
2018-09-27T13:34:25.496Z,2.90
2018-09-27T13:36:54.944Z,1.73
2018-09-27T13:39:24.359Z,2.73
2018-09-27T13:41:53.840Z,2.63
2018-09-27T13:44:23.332Z,2.50
2018-09-27T13:46:52.900Z,2.73
2018-09-27T13:49:22.292Z,2.63
2018-09-27T13:51:51.792Z,2.77
2018-09-27T13:54:21.193Z,2.30
2018-09-27T13:56:50.659Z,2.73
2018-09-27T13:59:20.053Z,3.27
2018-09-27T14:01:49.432Z,3.23
2018-09-27T14:04:18.856Z,2.50
2018-09-27T14:06:48.328Z,2.57
2018-09-27T14:09:17.732Z,2.50
2018-09-27T14:11:47.175Z,2.87
2018-09-27T14:14:16.606Z,2.67
2018-09-27T14:16:46.079Z,2.80
2018-09-27T14:19:15.471Z,2.53
2018-09-27T14:21:46.644Z,2.90
2018-09-27T14:24:16.060Z,2.33
2018-09-27T14:26:45.580Z,2.40
2018-09-27T14:29:14.997Z,2.17
2018-09-27T14:31:44.402Z,2.43
2018-09-27T14:34:13.800Z,2.17
2018-09-27T14:36:43.267Z,2.30
2018-09-27T14:39:12.655Z,2.30
2018-09-27T14:41:42.228Z,2.70
2018-09-27T14:44:11.630Z,2.73
2018-09-27T14:46:41.037Z,2.50
2018-09-27T14:49:10.451Z,2.37
2018-09-27T14:51:39.855Z,2.77
2018-09-27T14:54:15.980Z,2.50
2018-09-27T14:56:45.381Z,2.37
2018-09-27T14:59:14.876Z,2.50
2018-09-27T15:01:44.251Z,3.10
2018-09-27T15:04:13.639Z,2.27
2018-09-27T15:06:43.112Z,2.60
2018-09-27T15:09:12.992Z,2.33
2018-09-27T15:11:42.481Z,3.13
2018-09-27T15:14:11.880Z,3.87
2018-09-27T15:16:41.290Z,5.90
2018-09-27T15:19:10.695Z,3.97
2018-09-27T15:21:40.131Z,2.77
2018-09-27T15:24:09.587Z,3.43
2018-09-27T15:26:38.988Z,3.47
2018-09-27T15:29:08.465Z,2.43
2018-09-27T15:31:37.851Z,2.57
2018-09-27T15:34:07.367Z,2.77
2018-09-27T15:36:36.855Z,3.20
2018-09-27T15:39:07.926Z,3.40
2018-09-27T15:41:37.350Z,2.60
2018-09-27T15:44:06.774Z,3.60
2018-09-27T15:46:36.264Z,3.57
2018-09-27T15:49:05.726Z,2.83
2018-09-27T15:51:35.148Z,3.00
2018-09-27T15:54:04.571Z,3.77
2018-09-27T15:56:34.185Z,3.00
2018-09-27T15:59:03.583Z,3.30
2018-09-27T16:01:33.045Z,3.60
2018-09-27T16:04:02.544Z,3.10
2018-09-27T16:06:31.960Z,3.77
2018-09-27T16:09:01.400Z,3.53
2018-09-27T16:11:30.805Z,3.20
2018-09-27T16:14:00.231Z,3.30
2018-09-27T16:16:29.636Z,2.87
2018-09-27T16:18:59.058Z,3.00
2018-09-27T16:21:28.466Z,2.97
2018-09-27T16:23:57.854Z,2.90
2018-09-27T16:26:27.283Z,3.40
2018-09-27T16:28:56.728Z,3.10
2018-09-27T16:31:26.169Z,4.80
2018-09-27T16:33:55.574Z,3.67
2018-09-27T16:36:24.967Z,3.60
2018-09-27T16:38:54.415Z,5.30
2018-09-27T16:41:23.900Z,3.13
2018-09-27T16:43:53.384Z,3.83
2018-09-27T16:46:22.859Z,3.80
2018-09-27T16:48:52.342Z,3.80
2018-09-27T16:51:21.751Z,3.40
2018-09-27T16:53:51.199Z,4.10
2018-09-27T16:56:20.592Z,3.43
2018-09-27T16:58:50.008Z,4.60
2018-09-27T17:01:19.464Z,4.07
2018-09-27T17:03:48.917Z,4.63
2018-09-27T17:06:18.331Z,4.00
2018-09-27T17:08:47.825Z,4.70
2018-09-27T17:11:17.460Z,4.87
2018-09-27T17:13:46.843Z,4.93
2018-09-27T17:16:16.240Z,4.30
2018-09-27T17:18:45.908Z,4.83
2018-09-27T17:21:15.360Z,4.60
2018-09-27T17:23:44.894Z,5.53
2018-09-27T17:26:14.355Z,4.90
2018-09-27T17:28:43.864Z,4.73
2018-09-27T17:31:13.209Z,5.90
2018-09-27T17:33:42.690Z,5.03
2018-09-27T17:36:12.163Z,5.17
2018-09-27T17:38:41.644Z,7.00
2018-09-27T17:41:11.224Z,4.93
2018-09-27T17:43:40.651Z,3.70
2018-09-27T17:46:10.047Z,5.27
2018-09-27T17:48:39.529Z,4.10
2018-09-27T17:51:08.940Z,5.07
2018-09-27T17:53:38.357Z,4.90
2018-09-27T17:56:07.928Z,9.53
2018-09-27T17:58:37.415Z,9.77
2018-09-27T18:01:06.804Z,6.53
2018-09-27T18:03:36.453Z,11.20
2018-09-27T18:06:05.925Z,7.57
2018-09-27T18:08:35.358Z,5.27
2018-09-27T18:11:04.961Z,4.33
2018-09-27T18:13:34.445Z,4.17
2018-09-27T18:16:03.812Z,4.40
2018-09-27T18:18:33.205Z,4.03
2018-09-27T18:21:02.651Z,4.17
2018-09-27T18:23:32.158Z,4.33
2018-09-27T18:26:02.067Z,5.27
2018-09-27T18:28:31.547Z,3.47
2018-09-27T18:31:01.004Z,4.50
2018-09-27T18:33:30.344Z,3.90
2018-09-27T18:35:59.779Z,3.67
2018-09-27T18:38:29.430Z,4.47
2018-09-27T18:40:58.869Z,3.93
2018-09-27T18:43:28.264Z,4.20
2018-09-27T18:45:57.759Z,6.30
2018-09-27T18:48:27.336Z,4.37
2018-09-27T18:50:56.827Z,4.80
2018-09-27T18:53:26.268Z,3.53
2018-09-27T18:55:55.694Z,4.60
2018-09-27T18:58:25.120Z,4.53
2018-09-27T19:00:54.547Z,3.90
2018-09-27T19:03:24.043Z,5.40
2018-09-27T19:05:53.436Z,4.37
2018-09-27T19:08:22.839Z,4.80
2018-09-27T19:10:52.239Z,4.77
2018-09-27T19:13:21.790Z,4.43
2018-09-27T19:15:51.768Z,4.40
2018-09-27T19:18:21.294Z,4.87
2018-09-27T19:20:51.024Z,4.47
2018-09-27T19:23:20.492Z,4.63
2018-09-27T19:25:49.884Z,4.80
2018-09-27T19:28:19.265Z,4.20
2018-09-27T19:30:48.833Z,5.43
2018-09-27T19:33:18.282Z,4.93
2018-09-27T19:35:47.868Z,3.90
2018-09-27T19:38:17.271Z,4.20
2018-09-27T19:40:46.667Z,4.77
2018-09-27T19:43:16.244Z,4.83
2018-09-27T19:45:45.664Z,4.30
2018-09-27T19:48:15.085Z,4.47
2018-09-27T19:50:44.512Z,3.93
2018-09-27T19:53:13.951Z,5.27
2018-09-27T19:55:43.780Z,4.47
2018-09-27T19:58:13.210Z,4.33
2018-09-27T20:00:42.661Z,4.30
2018-09-27T20:03:12.113Z,4.40
2018-09-27T20:05:41.476Z,4.43
2018-09-27T20:08:11.008Z,4.97
2018-09-27T20:10:40.435Z,4.00
2018-09-27T20:13:09.867Z,4.73
2018-09-27T20:15:39.290Z,5.07
2018-09-27T20:18:08.718Z,4.80
2018-09-27T20:20:38.142Z,5.20
2018-09-27T20:23:07.660Z,5.43
2018-09-27T20:25:37.036Z,5.70
2018-09-27T20:28:06.847Z,4.07
2018-09-27T20:30:36.299Z,5.90
2018-09-27T20:33:05.955Z,6.10
2018-09-27T20:35:41.863Z,4.83
2018-09-27T20:38:12.229Z,4.67
2018-09-27T20:40:41.816Z,5.50
2018-09-27T20:43:11.306Z,5.57
2018-09-27T20:45:40.741Z,4.60
2018-09-27T20:48:10.203Z,4.80
2018-09-27T20:50:39.673Z,4.60
2018-09-27T20:53:09.069Z,6.27
2018-09-27T20:55:38.692Z,4.20
2018-09-27T20:58:08.081Z,4.97
2018-09-27T21:00:37.449Z,5.20
2018-09-27T21:03:07.024Z,5.23
2018-09-27T21:05:36.356Z,5.13
2018-09-27T21:08:05.784Z,4.13
2018-09-27T21:10:35.201Z,4.70
2018-09-27T21:13:04.651Z,5.10
2018-09-27T21:15:34.014Z,5.10
2018-09-27T21:18:03.413Z,5.80
2018-09-27T21:20:35.812Z,4.93
2018-09-27T21:23:05.224Z,5.13
2018-09-27T21:25:34.644Z,5.17
2018-09-27T21:28:04.136Z,5.40
2018-09-27T21:30:33.894Z,5.00
2018-09-27T21:33:03.289Z,4.97
2018-09-27T21:35:32.675Z,4.93
2018-09-27T21:38:02.163Z,5.33
2018-09-27T21:40:31.548Z,4.40
2018-09-27T21:43:00.932Z,5.00
2018-09-27T21:45:30.333Z,4.70
2018-09-27T21:47:59.748Z,4.83
2018-09-27T21:50:29.240Z,4.80
2018-09-27T21:52:58.555Z,4.53
2018-09-27T21:55:27.975Z,4.13
2018-09-27T21:57:57.476Z,3.90
2018-09-27T22:00:26.928Z,4.77
2018-09-27T22:02:56.317Z,5.03
2018-09-27T22:05:25.791Z,4.20
2018-09-27T22:07:55.207Z,4.57
2018-09-27T22:10:24.627Z,4.03
2018-09-27T22:12:54.060Z,4.33
2018-09-27T22:15:23.521Z,3.40
2018-09-27T22:17:52.927Z,4.27
2018-09-27T22:20:22.304Z,3.93
2018-09-27T22:22:51.836Z,4.07
2018-09-27T22:25:21.333Z,4.47
2018-09-27T22:27:50.780Z,4.50
2018-09-27T22:30:20.171Z,4.17
2018-09-27T22:32:49.620Z,4.33
2018-09-27T22:35:19.048Z,3.87
2018-09-27T22:37:48.424Z,4.47
2018-09-27T22:40:17.850Z,4.30
2018-09-27T22:42:47.239Z,4.93
2018-09-27T22:45:16.716Z,4.83
2018-09-27T22:47:46.139Z,4.30
2018-09-27T22:50:15.569Z,4.20
2018-09-27T22:52:44.968Z,4.07
2018-09-27T22:55:14.373Z,4.50
2018-09-27T22:57:43.776Z,4.73
2018-09-27T23:00:13.243Z,4.80
2018-09-27T23:02:42.663Z,4.23
2018-09-27T23:05:12.065Z,4.00
2018-09-27T23:07:41.473Z,5.13
2018-09-27T23:10:10.885Z,5.47
2018-09-27T23:12:40.324Z,4.17
2018-09-27T23:15:09.731Z,4.80
2018-09-27T23:17:39.173Z,4.00
2018-09-27T23:20:10.184Z,4.47
2018-09-27T23:22:39.736Z,4.77
2018-09-27T23:25:09.402Z,3.90
2018-09-27T23:27:38.828Z,5.33
2018-09-27T23:30:08.310Z,4.60
2018-09-27T23:32:37.700Z,4.63
2018-09-27T23:35:07.119Z,4.43
2018-09-27T23:37:36.723Z,4.37
2018-09-27T23:40:06.173Z,4.43
2018-09-27T23:42:35.555Z,4.33
2018-09-27T23:45:04.992Z,4.40
2018-09-27T23:47:34.440Z,4.40
2018-09-27T23:50:03.899Z,4.20
2018-09-27T23:52:33.294Z,4.43
2018-09-27T23:55:02.675Z,5.00
2018-09-27T23:57:32.073Z,4.37
